createdAt,value
2022-12-11T00:01:25.404Z,94.38
2022-12-11T00:03:52.063Z,99.97
2022-12-11T00:06:21.732Z,99.10
2022-12-11T00:08:51.467Z,103.35
2022-12-11T00:11:17.964Z,82.68
2022-12-11T00:13:44.593Z,95.72
2022-12-11T00:16:11.592Z,85.20
2022-12-11T00:18:38.575Z,78.25
2022-12-11T00:21:07.643Z,92.78
2022-12-11T00:23:37.573Z,80.38
2022-12-11T00:26:09.398Z,78.88
2022-12-11T00:28:36.210Z,73.72
2022-12-11T00:31:07.736Z,57.92
2022-12-11T00:33:34.573Z,70.35
2022-12-11T00:36:01.388Z,48.33
2022-12-11T00:38:28.587Z,61.53
2022-12-11T00:41:01.000Z,52.45
2022-12-11T00:43:27.458Z,58.08
2022-12-11T00:45:54.087Z,58.95
2022-12-11T00:48:20.599Z,61.28
2022-12-11T00:50:47.172Z,51.70
2022-12-11T00:53:13.817Z,56.13
2022-12-11T00:55:42.158Z,52.20
2022-12-11T00:58:09.275Z,48.78
2022-12-11T01:00:36.148Z,48.78
2022-12-11T01:03:03.181Z,50.53
2022-12-11T01:05:29.777Z,54.42
2022-12-11T01:07:56.329Z,41.72
2022-12-11T01:10:25.672Z,55.67
2022-12-11T01:12:58.302Z,50.08
2022-12-11T01:15:28.117Z,58.63
2022-12-11T01:17:55.340Z,67.28
2022-12-11T01:20:22.865Z,61.50
2022-12-11T01:22:53.669Z,66.85
2022-12-11T01:25:20.176Z,66.55
2022-12-11T01:27:46.965Z,46.92
2022-12-11T01:30:14.159Z,58.20
2022-12-11T01:32:40.617Z,40.28
2022-12-11T01:35:08.819Z,50.42
2022-12-11T01:37:35.539Z,49.53
2022-12-11T01:40:03.926Z,64.13
2022-12-11T01:42:30.599Z,53.70
2022-12-11T01:45:26.728Z,36.42
2022-12-11T01:48:08.345Z,53.38
2022-12-11T01:50:41.106Z,51.53
2022-12-11T01:53:12.478Z,62.05
2022-12-11T01:55:39.970Z,64.78
2022-12-11T01:58:07.062Z,51.17
2022-12-11T02:00:33.580Z,59.05
2022-12-11T02:03:00.153Z,69.00
2022-12-11T02:05:26.645Z,65.63
2022-12-11T02:07:58.688Z,71.75
2022-12-11T02:10:38.231Z,61.25
2022-12-11T02:13:13.325Z,60.67
2022-12-11T02:15:56.616Z,61.60
2022-12-11T02:18:47.391Z,66.38
2022-12-11T02:21:26.207Z,82.32
2022-12-11T02:24:18.353Z,69.88
2022-12-11T02:27:03.292Z,84.90
2022-12-11T02:29:39.512Z,62.30
2022-12-11T02:32:35.273Z,57.28
2022-12-11T02:35:24.351Z,71.43
2022-12-11T02:38:02.917Z,72.63
2022-12-11T02:40:33.103Z,64.93
2022-12-11T02:43:03.430Z,71.55
2022-12-11T02:45:32.324Z,71.22
2022-12-11T02:48:02.271Z,73.60
2022-12-11T02:50:30.167Z,69.75
2022-12-11T02:52:59.640Z,73.97
2022-12-11T02:55:28.229Z,78.43
2022-12-11T02:58:14.700Z,76.30
2022-12-11T03:00:41.153Z,64.45
2022-12-11T03:03:07.977Z,60.03
2022-12-11T03:05:35.228Z,64.93
2022-12-11T03:08:02.333Z,66.55
2022-12-11T03:10:28.857Z,58.95
2022-12-11T03:12:57.782Z,70.57
2022-12-11T03:15:36.201Z,62.55
2022-12-11T03:18:49.556Z,63.40
2022-12-11T03:21:27.547Z,65.72
2022-12-11T03:24:21.206Z,64.65
2022-12-11T03:27:17.674Z,61.67
2022-12-11T03:29:59.231Z,64.80
2022-12-11T03:32:35.980Z,66.10
2022-12-11T03:35:13.667Z,71.82
2022-12-11T03:37:42.306Z,80.32
2022-12-11T03:40:14.816Z,72.85
2022-12-11T03:42:43.773Z,75.38
2022-12-11T03:45:11.942Z,80.78
2022-12-11T03:47:40.798Z,83.07
2022-12-11T03:50:10.354Z,85.25
2022-12-11T03:52:45.593Z,79.35
2022-12-11T03:55:14.916Z,90.13
2022-12-11T03:57:41.404Z,79.28
2022-12-11T04:00:12.119Z,84.30
2022-12-11T04:02:38.909Z,79.03
2022-12-11T04:05:05.831Z,81.95
2022-12-11T04:07:32.404Z,74.82
2022-12-11T04:09:59.110Z,74.85
2022-12-11T04:12:25.618Z,75.00
2022-12-11T04:15:04.145Z,72.72
2022-12-11T04:17:55.782Z,74.22
2022-12-11T04:20:45.560Z,67.88
2022-12-11T04:23:33.880Z,66.72
2022-12-11T04:26:08.081Z,71.55
2022-12-11T04:28:35.751Z,62.95
2022-12-11T04:31:02.918Z,58.42
2022-12-11T04:33:29.601Z,57.17
2022-12-11T04:36:00.279Z,60.83
2022-12-11T04:38:27.400Z,54.88
2022-12-11T04:41:02.150Z,54.13
2022-12-11T04:43:29.120Z,54.70
2022-12-11T04:46:07.176Z,58.33
2022-12-11T04:48:34.677Z,56.17
2022-12-11T04:51:01.201Z,54.92
2022-12-11T04:53:28.271Z,59.40
2022-12-11T04:55:55.179Z,55.40
2022-12-11T04:58:22.342Z,59.78
2022-12-11T05:00:48.809Z,58.78
2022-12-11T05:03:15.373Z,63.25
2022-12-11T05:05:48.136Z,70.25
2022-12-11T05:08:14.647Z,68.75
2022-12-11T05:10:45.756Z,64.47
2022-12-11T05:13:15.042Z,62.90
2022-12-11T05:15:41.563Z,61.90
2022-12-11T05:18:08.068Z,65.78
2022-12-11T05:20:34.556Z,57.95
2022-12-11T05:23:01.047Z,57.13
2022-12-11T05:25:27.490Z,65.55
2022-12-11T05:27:53.989Z,58.58
2022-12-11T05:30:20.502Z,58.30
2022-12-11T05:32:47.009Z,63.70
2022-12-11T05:35:13.700Z,64.90
2022-12-11T05:37:40.947Z,60.08
2022-12-11T05:40:07.988Z,56.60
2022-12-11T05:42:35.016Z,55.67
2022-12-11T05:45:01.539Z,57.17
2022-12-11T05:47:28.074Z,58.67
2022-12-11T05:49:54.565Z,56.08
2022-12-11T05:52:21.687Z,54.63
2022-12-11T05:54:51.043Z,57.00
2022-12-11T05:57:17.789Z,50.88
2022-12-11T05:59:45.229Z,42.03
2022-12-11T06:02:11.782Z,42.30
2022-12-11T06:04:38.313Z,51.75
2022-12-11T06:07:04.771Z,58.85
2022-12-11T06:09:31.273Z,47.55
2022-12-11T06:11:57.735Z,53.20
2022-12-11T06:14:24.192Z,49.22
2022-12-11T06:16:50.894Z,45.22
2022-12-11T06:19:18.585Z,53.65
2022-12-11T06:21:45.974Z,50.85
2022-12-11T06:24:12.559Z,47.28
2022-12-11T06:26:39.195Z,48.10
2022-12-11T06:29:09.217Z,54.20
2022-12-11T06:31:39.378Z,48.45
2022-12-11T06:34:06.073Z,47.33
2022-12-11T06:36:32.652Z,54.03
2022-12-11T06:38:59.084Z,44.85
2022-12-11T06:41:25.816Z,45.58
2022-12-11T06:43:52.475Z,45.30
2022-12-11T06:46:20.111Z,44.95
2022-12-11T06:48:47.976Z,45.35
2022-12-11T06:51:17.031Z,40.97
2022-12-11T06:53:44.130Z,42.40
2022-12-11T06:56:14.272Z,44.95
2022-12-11T06:58:42.415Z,39.42
2022-12-11T07:01:19.147Z,41.55
2022-12-11T07:03:45.866Z,42.33
2022-12-11T07:06:12.884Z,42.05
2022-12-11T07:08:39.516Z,39.75
2022-12-11T07:11:09.546Z,46.13
2022-12-11T07:13:36.372Z,30.20
2022-12-11T07:16:04.723Z,39.40
2022-12-11T07:18:34.573Z,37.53
2022-12-11T07:21:01.172Z,35.75
2022-12-11T07:23:28.733Z,33.72
2022-12-11T07:25:56.571Z,36.45
2022-12-11T07:28:23.322Z,41.33
2022-12-11T07:30:50.032Z,37.47
2022-12-11T07:33:16.538Z,44.55
2022-12-11T07:35:43.087Z,41.53
2022-12-11T07:38:09.584Z,41.03
2022-12-11T07:40:36.077Z,39.40
2022-12-11T07:43:02.725Z,38.33
2022-12-11T07:45:29.627Z,39.90
2022-12-11T07:47:56.258Z,37.00
2022-12-11T07:50:23.109Z,36.35
2022-12-11T07:52:49.570Z,27.98
2022-12-11T07:55:16.173Z,41.20
2022-12-11T07:57:42.638Z,34.83
2022-12-11T08:00:10.599Z,32.58
2022-12-11T08:02:37.891Z,35.60
2022-12-11T08:05:04.973Z,37.63
2022-12-11T08:07:34.393Z,37.63
2022-12-11T08:10:01.008Z,35.42
2022-12-11T08:12:27.444Z,35.40
2022-12-11T08:14:53.892Z,28.33
2022-12-11T08:17:23.373Z,26.30
2022-12-11T08:19:53.942Z,33.33
2022-12-11T08:22:20.395Z,27.63
2022-12-11T08:24:46.930Z,27.48
2022-12-11T08:27:13.386Z,31.13
2022-12-11T08:29:39.901Z,26.15
2022-12-11T08:32:11.915Z,20.05
2022-12-11T08:34:38.847Z,25.17
2022-12-11T08:37:05.368Z,29.80
2022-12-11T08:39:31.902Z,33.47
2022-12-11T08:41:58.669Z,31.52
2022-12-11T08:44:26.767Z,31.40
2022-12-11T08:46:53.276Z,28.25
2022-12-11T08:49:19.727Z,28.88
2022-12-11T08:51:46.227Z,23.70
2022-12-11T08:54:12.793Z,19.45
2022-12-11T08:56:39.340Z,33.67
2022-12-11T08:59:06.249Z,34.25
2022-12-11T09:01:32.967Z,29.00
2022-12-11T09:03:59.454Z,31.73
2022-12-11T09:06:29.248Z,36.17
2022-12-11T09:08:58.451Z,36.22
2022-12-11T09:11:28.252Z,32.30
2022-12-11T09:13:54.936Z,31.13
2022-12-11T09:16:23.502Z,30.38
2022-12-11T09:18:51.849Z,34.28
2022-12-11T09:21:20.980Z,37.08
2022-12-11T09:23:48.241Z,35.47
2022-12-11T09:26:16.899Z,38.83
2022-12-11T09:28:46.683Z,35.90
2022-12-11T09:31:25.742Z,39.40
2022-12-11T09:33:55.351Z,28.00
2022-12-11T09:36:22.804Z,29.70
2022-12-11T09:38:49.518Z,35.40
2022-12-11T09:41:22.043Z,35.00
2022-12-11T09:43:51.460Z,35.50
2022-12-11T09:46:21.604Z,34.58
2022-12-11T09:48:53.544Z,40.90
2022-12-11T09:51:26.079Z,36.40
2022-12-11T09:53:56.754Z,38.10
2022-12-11T09:57:18.671Z,26.95
2022-12-11T09:59:52.739Z,26.90
2022-12-11T10:02:32.420Z,32.67
2022-12-11T10:05:24.169Z,37.13
2022-12-11T10:08:06.109Z,33.88
2022-12-11T10:10:42.901Z,39.55
2022-12-11T10:13:15.169Z,31.30
2022-12-11T10:16:06.667Z,28.92
2022-12-11T10:18:33.883Z,21.98
2022-12-11T10:21:03.180Z,39.22
2022-12-11T10:23:38.227Z,21.92
2022-12-11T10:26:14.193Z,36.83
2022-12-11T10:28:40.710Z,22.00
2022-12-11T10:31:19.140Z,33.78
2022-12-11T10:34:02.122Z,34.75
2022-12-11T10:36:35.629Z,38.58
2022-12-11T10:39:03.213Z,28.77
2022-12-11T10:41:39.280Z,32.28
2022-12-11T10:44:21.995Z,23.52
2022-12-11T10:47:02.650Z,24.13
2022-12-11T10:49:31.124Z,30.90
2022-12-11T10:52:01.349Z,31.80
2022-12-11T10:54:27.752Z,38.58
2022-12-11T10:56:54.896Z,33.08
2022-12-11T10:59:32.024Z,26.88
2022-12-11T11:01:58.757Z,25.35
2022-12-11T11:04:35.657Z,42.88
2022-12-11T11:07:31.488Z,33.85
2022-12-11T11:10:27.450Z,32.35
2022-12-11T11:13:01.584Z,32.60
2022-12-11T11:15:31.393Z,33.47
2022-12-11T11:18:16.694Z,36.50
2022-12-11T11:20:47.869Z,37.05
2022-12-11T11:23:16.454Z,32.25
2022-12-11T11:25:52.473Z,28.80
2022-12-11T11:28:26.998Z,39.55
2022-12-11T11:31:08.438Z,33.85
2022-12-11T11:33:38.001Z,30.98
2022-12-11T11:36:07.735Z,32.40
2022-12-11T11:39:20.480Z,32.97
2022-12-11T11:41:51.805Z,26.65
2022-12-11T11:44:44.284Z,24.15
2022-12-11T11:47:34.584Z,30.65
2022-12-11T11:50:08.434Z,23.02
2022-12-11T11:52:44.204Z,34.47
2022-12-11T11:55:35.451Z,39.30
2022-12-11T11:58:13.968Z,41.75
2022-12-11T12:00:40.605Z,40.10
2022-12-11T12:03:13.857Z,39.13
2022-12-11T12:05:40.294Z,36.13
2022-12-11T12:08:12.860Z,39.22
2022-12-11T12:10:58.015Z,24.67
2022-12-11T12:13:54.561Z,22.63
2022-12-11T12:16:52.330Z,33.58
2022-12-11T12:19:24.044Z,24.35
2022-12-11T12:21:53.036Z,30.85
2022-12-11T12:24:43.643Z,26.90
2022-12-11T12:27:51.084Z,39.97
2022-12-11T12:30:22.102Z,43.03
2022-12-11T12:33:04.196Z,41.97
2022-12-11T12:35:36.677Z,39.80
2022-12-11T12:38:09.428Z,38.28
2022-12-11T12:41:02.179Z,31.58
2022-12-11T12:43:40.822Z,35.53
2022-12-11T12:46:35.511Z,40.20
2022-12-11T12:49:03.586Z,34.78
2022-12-11T12:51:30.947Z,38.45
2022-12-11T12:54:00.475Z,35.72
2022-12-11T12:56:30.596Z,35.92
2022-12-11T12:58:57.732Z,29.65
2022-12-11T13:01:27.478Z,25.67
2022-12-11T13:03:57.545Z,25.92
2022-12-11T13:06:40.767Z,21.38
2022-12-11T13:09:28.026Z,22.70
2022-12-11T13:11:59.516Z,21.38
2022-12-11T13:14:33.734Z,22.05
2022-12-11T13:17:34.960Z,21.77
2022-12-11T13:20:20.804Z,22.33
2022-12-11T13:23:11.660Z,27.75
2022-12-11T13:25:55.248Z,22.20
2022-12-11T13:31:01.416Z,34.35
2022-12-11T13:33:30.377Z,27.25
2022-12-11T13:36:14.965Z,30.27
2022-12-11T13:38:50.990Z,22.55
2022-12-11T13:41:19.531Z,22.52
2022-12-11T13:43:48.820Z,34.55
2022-12-11T13:46:21.183Z,25.63
2022-12-11T13:48:53.765Z,23.45
2022-12-11T13:51:22.909Z,27.33
2022-12-11T13:53:49.801Z,31.58
2022-12-11T13:56:18.895Z,24.83
2022-12-11T13:58:45.523Z,26.35
2022-12-11T14:01:32.692Z,24.40
2022-12-11T14:04:08.365Z,33.42
2022-12-11T14:06:36.958Z,24.20
2022-12-11T14:09:05.513Z,25.45
2022-12-11T14:11:38.577Z,24.23
2022-12-11T14:14:08.217Z,24.83
2022-12-11T14:16:35.026Z,25.98
2022-12-11T14:19:05.374Z,43.60
2022-12-11T14:21:32.159Z,21.02
2022-12-11T14:24:03.333Z,24.85
2022-12-11T14:29:00.995Z,23.10
2022-12-11T14:31:30.141Z,35.00
2022-12-11T14:34:13.804Z,38.45
2022-12-11T14:39:16.981Z,21.52
2022-12-11T14:41:52.832Z,28.00
2022-12-11T14:44:23.750Z,35.67
2022-12-11T14:46:54.675Z,32.20
2022-12-11T14:49:33.578Z,32.75
2022-12-11T14:52:00.564Z,37.60
2022-12-11T14:54:41.638Z,32.70
2022-12-11T14:57:15.240Z,28.27
2022-12-11T14:59:47.122Z,28.50
2022-12-11T15:02:29.606Z,26.20
2022-12-11T15:05:19.299Z,30.40
2022-12-11T15:08:16.250Z,42.03
2022-12-11T15:10:56.020Z,29.02
2022-12-11T15:13:24.595Z,26.95
2022-12-11T15:15:52.981Z,21.55
2022-12-11T15:18:22.634Z,21.58
2022-12-11T15:20:54.666Z,17.30
2022-12-11T15:23:21.480Z,25.92
2022-12-11T15:25:53.541Z,22.98
2022-12-11T15:28:35.714Z,18.95
2022-12-11T15:31:25.084Z,18.23
2022-12-11T15:33:52.029Z,18.23
2022-12-11T15:36:30.392Z,23.92
2022-12-11T15:38:57.480Z,19.73
2022-12-11T15:41:24.898Z,15.15
2022-12-11T15:43:58.926Z,16.63
2022-12-11T15:46:26.425Z,16.00
2022-12-11T15:48:53.581Z,22.20
2022-12-11T15:51:20.026Z,16.17
2022-12-11T15:53:46.461Z,15.63
2022-12-11T15:56:16.400Z,14.85
2022-12-11T15:58:48.991Z,12.68
2022-12-11T16:01:15.505Z,16.02
2022-12-11T16:03:42.051Z,16.92
2022-12-11T16:06:13.413Z,14.35
2022-12-11T16:08:39.916Z,14.98
2022-12-11T16:11:06.495Z,20.10
2022-12-11T16:13:32.911Z,16.70
2022-12-11T16:15:59.454Z,15.23
2022-12-11T16:18:26.504Z,14.25
2022-12-11T16:20:53.134Z,16.92
2022-12-11T16:23:19.765Z,24.10
2022-12-11T16:25:47.018Z,19.30
2022-12-11T16:28:15.361Z,20.00
2022-12-11T16:30:43.487Z,17.25
2022-12-11T16:33:13.159Z,17.25
2022-12-11T16:35:41.709Z,13.55
2022-12-11T16:38:09.993Z,14.90
2022-12-11T16:40:37.318Z,13.48
2022-12-11T16:43:05.112Z,14.02
2022-12-11T16:45:32.246Z,20.83
2022-12-11T16:47:58.819Z,22.65
2022-12-11T16:50:25.972Z,19.98
2022-12-11T16:52:52.493Z,20.00
2022-12-11T16:55:22.149Z,15.82
2022-12-11T16:57:48.659Z,21.85
2022-12-11T17:00:15.804Z,16.13
2022-12-11T17:02:42.439Z,15.10
2022-12-11T17:05:09.301Z,14.57
2022-12-11T17:07:35.958Z,15.05
2022-12-11T17:10:03.272Z,15.60
2022-12-11T17:12:30.450Z,17.00
2022-12-11T17:14:57.383Z,18.73
2022-12-11T17:17:24.768Z,25.05
2022-12-11T17:19:51.273Z,20.50
2022-12-11T17:22:17.831Z,20.00
2022-12-11T17:24:44.404Z,18.25
2022-12-11T17:27:10.982Z,15.50
2022-12-11T17:29:37.898Z,15.60
2022-12-11T17:32:04.725Z,20.45
2022-12-11T17:34:37.572Z,17.70
2022-12-11T17:37:04.999Z,21.45
2022-12-11T17:39:31.726Z,18.00
2022-12-11T17:41:58.359Z,17.42
2022-12-11T17:44:26.623Z,14.02
2022-12-11T17:46:53.478Z,15.48
2022-12-11T17:49:20.060Z,18.52
2022-12-11T17:51:46.654Z,17.05
2022-12-11T17:54:13.324Z,21.30
2022-12-11T17:56:40.543Z,19.70
2022-12-11T17:59:07.100Z,22.98
2022-12-11T18:01:33.933Z,18.65
2022-12-11T18:04:01.905Z,18.73
2022-12-11T18:06:28.736Z,19.65
2022-12-11T18:08:55.324Z,22.67
2022-12-11T18:11:22.919Z,18.20
2022-12-11T18:13:51.958Z,17.42
2022-12-11T18:16:26.204Z,19.17
2022-12-11T18:18:53.515Z,20.02
2022-12-11T18:21:23.363Z,30.00
2022-12-11T18:23:50.991Z,42.47
2022-12-11T18:26:19.078Z,29.80
2022-12-11T18:28:46.237Z,24.92
2022-12-11T18:31:13.692Z,30.40
2022-12-11T18:33:42.504Z,29.70
2022-12-11T18:36:09.793Z,27.27
2022-12-11T18:38:36.298Z,19.42
2022-12-11T18:41:05.137Z,22.60
2022-12-11T18:43:31.696Z,21.77
2022-12-11T18:45:58.204Z,19.67
2022-12-11T18:48:24.651Z,14.32
2022-12-11T18:50:51.830Z,17.67
2022-12-11T18:53:19.575Z,16.50
2022-12-11T18:55:48.246Z,14.73
2022-12-11T18:58:17.652Z,25.50
2022-12-11T19:00:44.854Z,31.52
2022-12-11T19:03:13.624Z,29.15
2022-12-11T19:05:43.728Z,35.55
2022-12-11T19:08:12.630Z,30.35
2022-12-11T19:10:46.452Z,21.90
2022-12-11T19:13:13.709Z,28.70
2022-12-11T19:15:42.792Z,35.38
2022-12-11T19:18:09.748Z,22.88
2022-12-11T19:20:55.424Z,29.10
2022-12-11T19:23:24.492Z,39.13
2022-12-11T19:25:51.040Z,41.45
2022-12-11T19:28:17.634Z,42.67
2022-12-11T19:30:48.776Z,41.78
2022-12-11T19:35:42.979Z,40.40
2022-12-11T19:38:09.851Z,28.10
2022-12-11T19:40:45.015Z,39.78
2022-12-11T19:43:11.873Z,29.10
2022-12-11T19:45:38.486Z,33.75
2022-12-11T19:48:05.672Z,27.35
2022-12-11T19:50:32.166Z,36.15
2022-12-11T19:52:58.701Z,30.50
2022-12-11T19:55:25.127Z,34.85
2022-12-11T19:57:51.664Z,39.00
2022-12-11T20:00:18.877Z,56.58
2022-12-11T20:02:45.402Z,43.10
2022-12-11T20:05:13.188Z,36.13
2022-12-11T20:07:40.125Z,32.15
2022-12-11T20:10:07.193Z,27.02
2022-12-11T20:12:33.766Z,24.02
2022-12-11T20:15:00.257Z,22.48
2022-12-11T20:17:26.814Z,22.83
2022-12-11T20:19:53.289Z,24.73
2022-12-11T20:22:19.807Z,26.20
2022-12-11T20:24:46.279Z,24.02
2022-12-11T20:27:12.778Z,38.33
2022-12-11T20:29:39.488Z,39.03
2022-12-11T20:32:06.698Z,34.83
2022-12-11T20:34:33.278Z,28.70
2022-12-11T20:37:00.384Z,40.33
2022-12-11T20:39:27.138Z,26.90
2022-12-11T20:41:53.666Z,24.75
2022-12-11T20:44:20.412Z,26.23
2022-12-11T20:46:46.977Z,36.22
2022-12-11T20:49:13.440Z,30.30
2022-12-11T20:51:40.298Z,29.05
2022-12-11T20:54:07.039Z,21.98
2022-12-11T20:56:33.573Z,21.45
2022-12-11T20:59:00.851Z,22.95
2022-12-11T21:01:30.688Z,26.33
2022-12-11T21:03:58.539Z,35.97
2022-12-11T21:06:31.019Z,28.70
2022-12-11T21:09:03.191Z,25.50
2022-12-11T21:11:29.775Z,23.75
2022-12-11T21:13:56.390Z,24.55
2022-12-11T21:16:23.613Z,19.25
2022-12-11T21:18:50.558Z,20.33
2022-12-11T21:21:17.637Z,20.63
2022-12-11T21:23:44.992Z,19.13
2022-12-11T21:26:12.038Z,19.92
2022-12-11T21:28:38.731Z,19.55
2022-12-11T21:31:08.309Z,22.15
2022-12-11T21:33:35.764Z,24.02
2022-12-11T21:36:03.512Z,22.67
2022-12-11T21:38:30.187Z,19.95
2022-12-11T21:40:56.725Z,23.08
2022-12-11T21:43:24.124Z,29.15
2022-12-11T21:46:07.042Z,30.90
2022-12-11T21:48:33.671Z,28.30
2022-12-11T21:51:15.518Z,31.80
2022-12-11T21:53:42.991Z,28.20
2022-12-11T21:56:15.332Z,33.65
2022-12-11T21:58:42.511Z,59.22
2022-12-11T22:01:23.213Z,46.47
2022-12-11T22:03:50.790Z,44.13
2022-12-11T22:06:17.411Z,50.65
2022-12-11T22:08:44.141Z,40.53
2022-12-11T22:11:10.893Z,49.88
2022-12-11T22:13:37.342Z,41.35
2022-12-11T22:16:03.985Z,40.67
2022-12-11T22:18:30.523Z,40.95
2022-12-11T22:20:58.009Z,37.97
2022-12-11T22:23:24.925Z,32.53
2022-12-11T22:25:52.651Z,36.15
2022-12-11T22:28:19.490Z,35.30
2022-12-11T22:30:46.290Z,45.38
2022-12-11T22:33:12.991Z,32.50
2022-12-11T22:35:39.681Z,44.08
2022-12-11T22:38:06.785Z,42.65
2022-12-11T22:40:33.383Z,47.47
2022-12-11T22:43:00.286Z,30.85
2022-12-11T22:45:26.800Z,41.47
2022-12-11T22:47:53.262Z,33.28
2022-12-11T22:50:19.796Z,27.10
2022-12-11T22:52:46.343Z,27.75
2022-12-11T22:55:13.135Z,26.08
2022-12-11T22:57:39.838Z,24.73
2022-12-11T23:00:13.211Z,26.05
2022-12-11T23:02:39.852Z,35.05
2022-12-11T23:05:06.893Z,35.42
2022-12-11T23:07:34.031Z,25.55
2022-12-11T23:10:01.035Z,30.33
2022-12-11T23:12:27.559Z,38.22
2022-12-11T23:14:54.012Z,35.33
2022-12-11T23:17:20.505Z,26.83
2022-12-11T23:19:47.028Z,24.58
2022-12-11T23:22:13.857Z,23.60
2022-12-11T23:24:40.636Z,25.40
2022-12-11T23:27:07.342Z,26.90
2022-12-11T23:29:34.131Z,28.52
2022-12-11T23:32:00.928Z,21.90
2022-12-11T23:34:27.333Z,24.10
2022-12-11T23:36:54.012Z,25.58
2022-12-11T23:39:20.467Z,24.75
2022-12-11T23:41:46.939Z,24.40
2022-12-11T23:44:13.430Z,26.88
2022-12-11T23:46:39.849Z,34.97
2022-12-11T23:49:06.362Z,34.92
2022-12-11T23:51:32.813Z,34.17
2022-12-11T23:53:59.250Z,29.00
2022-12-11T23:56:28.339Z,33.50
2022-12-11T23:58:55.741Z,43.55
